sensor_id;sensor_type;location;lat;lon;timestamp;pressure;altitude;pressure_sealevel;temperature;humidity
54042;BME280;41156;51.508;5.406;2023-05-23T00:02:16;101757.22;;;15.67;100.00
54042;BME280;41156;51.508;5.406;2023-05-23T00:05:17;101758.50;;;15.64;100.00
54042;BME280;41156;51.508;5.406;2023-05-23T00:08:18;101764.19;;;15.63;100.00
54042;BME280;41156;51.508;5.406;2023-05-23T00:11:18;101759.41;;;15.58;100.00
54042;BME280;41156;51.508;5.406;2023-05-23T00:14:19;101758.97;;;15.61;100.00
54042;BME280;41156;51.508;5.406;2023-05-23T00:17:19;101762.72;;;15.60;100.00
54042;BME280;41156;51.508;5.406;2023-05-23T00:20:21;101761.09;;;15.59;100.00
54042;BME280;41156;51.508;5.406;2023-05-23T00:23:21;101763.44;;;15.56;100.00
54042;BME280;41156;51.508;5.406;2023-05-23T00:26:24;101770.81;;;15.48;100.00
54042;BME280;41156;51.508;5.406;2023-05-23T00:29:24;101765.00;;;15.45;100.00
54042;BME280;41156;51.508;5.406;2023-05-23T00:32:24;101777.56;;;15.46;100.00
54042;BME280;41156;51.508;5.406;2023-05-23T00:35:25;101774.41;;;15.49;100.00
54042;BME280;41156;51.508;5.406;2023-05-23T00:38:26;101774.16;;;15.50;100.00
54042;BME280;41156;51.508;5.406;2023-05-23T00:41:27;101773.69;;;15.53;100.00
54042;BME280;41156;51.508;5.406;2023-05-23T00:44:29;101767.03;;;15.49;100.00
54042;BME280;41156;51.508;5.406;2023-05-23T00:47:29;101774.78;;;15.52;100.00
54042;BME280;41156;51.508;5.406;2023-05-23T00:50:30;101778.91;;;15.55;100.00
54042;BME280;41156;51.508;5.406;2023-05-23T00:53:30;101782.03;;;15.59;100.00
54042;BME280;41156;51.508;5.406;2023-05-23T00:56:30;101775.75;;;15.58;100.00
54042;BME280;41156;51.508;5.406;2023-05-23T00:59:32;101779.28;;;15.59;100.00
54042;BME280;41156;51.508;5.406;2023-05-23T01:02:33;101785.44;;;15.54;100.00
54042;BME280;41156;51.508;5.406;2023-05-23T01:05:36;101785.06;;;15.50;100.00
54042;BME280;41156;51.508;5.406;2023-05-23T01:08:36;101787.59;;;15.45;100.00
54042;BME280;41156;51.508;5.406;2023-05-23T01:11:45;101795.31;;;15.48;100.00
54042;BME280;41156;51.508;5.406;2023-05-23T01:15:08;101786.56;;;15.46;100.00
54042;BME280;41156;51.508;5.406;2023-05-23T01:18:23;101790.31;;;15.45;100.00
54042;BME280;41156;51.508;5.406;2023-05-23T01:21:26;101788.25;;;15.47;100.00
54042;BME280;41156;51.508;5.406;2023-05-23T01:24:44;101798.97;;;15.42;100.00
54042;BME280;41156;51.508;5.406;2023-05-23T01:27:55;101798.34;;;15.40;100.00
54042;BME280;41156;51.508;5.406;2023-05-23T01:30:57;101794.41;;;15.36;100.00
54042;BME280;41156;51.508;5.406;2023-05-23T01:34:01;101804.47;;;15.35;100.00
54042;BME280;41156;51.508;5.406;2023-05-23T01:37:07;101809.50;;;15.32;100.00
54042;BME280;41156;51.508;5.406;2023-05-23T01:40:09;101818.16;;;15.29;100.00
54042;BME280;41156;51.508;5.406;2023-05-23T01:43:10;101813.53;;;15.29;100.00
54042;BME280;41156;51.508;5.406;2023-05-23T01:46:10;101813.53;;;15.29;100.00
54042;BME280;41156;51.508;5.406;2023-05-23T01:49:12;101808.31;;;15.28;100.00
54042;BME280;41156;51.508;5.406;2023-05-23T01:52:13;101819.63;;;15.25;100.00
54042;BME280;41156;51.508;5.406;2023-05-23T01:55:16;101816.31;;;15.23;100.00
54042;BME280;41156;51.508;5.406;2023-05-23T01:58:21;101819.69;;;15.18;100.00
54042;BME280;41156;51.508;5.406;2023-05-23T02:01:21;101813.66;;;15.16;100.00
54042;BME280;41156;51.508;5.406;2023-05-23T02:04:22;101816.38;;;15.16;100.00
54042;BME280;41156;51.508;5.406;2023-05-23T02:07:22;101818.06;;;15.10;100.00
54042;BME280;41156;51.508;5.406;2023-05-23T02:10:22;101821.25;;;15.07;100.00
54042;BME280;41156;51.508;5.406;2023-05-23T02:13:22;101834.88;;;15.07;100.00
54042;BME280;41156;51.508;5.406;2023-05-23T02:16:23;101823.97;;;15.07;100.00
54042;BME280;41156;51.508;5.406;2023-05-23T02:19:25;101830.47;;;15.06;100.00
54042;BME280;41156;51.508;5.406;2023-05-23T02:22:26;101835.25;;;15.11;100.00
54042;BME280;41156;51.508;5.406;2023-05-23T02:25:27;101840.69;;;15.11;100.00
54042;BME280;41156;51.508;5.406;2023-05-23T02:28:27;101847.13;;;15.16;100.00
54042;BME280;41156;51.508;5.406;2023-05-23T02:31:27;101854.47;;;15.16;100.00
54042;BME280;41156;51.508;5.406;2023-05-23T02:34:28;101851.38;;;15.12;100.00
54042;BME280;41156;51.508;5.406;2023-05-23T02:37:28;101844.47;;;15.10;100.00
54042;BME280;41156;51.508;5.406;2023-05-23T02:40:28;101844.69;;;15.08;100.00
54042;BME280;41156;51.508;5.406;2023-05-23T02:43:29;101833.56;;;15.10;100.00
54042;BME280;41156;51.508;5.406;2023-05-23T02:46:29;101843.63;;;15.09;100.00
54042;BME280;41156;51.508;5.406;2023-05-23T02:49:29;101847.41;;;15.08;100.00
54042;BME280;41156;51.508;5.406;2023-05-23T02:52:31;101847.63;;;15.07;100.00
54042;BME280;41156;51.508;5.406;2023-05-23T02:55:31;101837.41;;;15.02;100.00
54042;BME280;41156;51.508;5.406;2023-05-23T02:58:31;101841.19;;;15.01;100.00
54042;BME280;41156;51.508;5.406;2023-05-23T03:01:34;101834.28;;;14.98;100.00
54042;BME280;41156;51.508;5.406;2023-05-23T03:04:35;101838.28;;;14.96;100.00
54042;BME280;41156;51.508;5.406;2023-05-23T03:07:37;101839.94;;;14.97;100.00
54042;BME280;41156;51.508;5.406;2023-05-23T03:10:37;101846.47;;;14.96;100.00
54042;BME280;41156;51.508;5.406;2023-05-23T03:13:37;101846.91;;;14.93;100.00
54042;BME280;41156;51.508;5.406;2023-05-23T03:16:37;101848.78;;;14.92;100.00
54042;BME280;41156;51.508;5.406;2023-05-23T03:19:38;101854.22;;;14.92;100.00
54042;BME280;41156;51.508;5.406;2023-05-23T03:22:38;101852.97;;;14.88;100.00
54042;BME280;41156;51.508;5.406;2023-05-23T03:25:38;101838.56;;;14.88;100.00
54042;BME280;41156;51.508;5.406;2023-05-23T03:28:39;101844.81;;;14.88;100.00
54042;BME280;41156;51.508;5.406;2023-05-23T03:31:39;101849.22;;;14.89;100.00
54042;BME280;41156;51.508;5.406;2023-05-23T03:34:40;101857.59;;;14.88;100.00
54042;BME280;41156;51.508;5.406;2023-05-23T03:37:40;101861.97;;;14.89;100.00
54042;BME280;41156;51.508;5.406;2023-05-23T03:40:40;101848.38;;;14.89;100.00
54042;BME280;41156;51.508;5.406;2023-05-23T03:43:40;101860.94;;;14.90;100.00
54042;BME280;41156;51.508;5.406;2023-05-23T03:46:41;101860.94;;;14.90;100.00
54042;BME280;41156;51.508;5.406;2023-05-23T03:49:41;101860.94;;;14.90;100.00
54042;BME280;41156;51.508;5.406;2023-05-23T03:52:41;101861.97;;;14.89;100.00
54042;BME280;41156;51.508;5.406;2023-05-23T03:55:42;101859.25;;;14.89;100.00
54042;BME280;41156;51.508;5.406;2023-05-23T03:58:42;101865.75;;;14.88;100.00
54042;BME280;41156;51.508;5.406;2023-05-23T04:01:42;101864.94;;;14.87;100.00
54042;BME280;41156;51.508;5.406;2023-05-23T04:04:43;101865.97;;;14.86;100.00
54042;BME280;41156;51.508;5.406;2023-05-23T04:07:43;101871.22;;;14.88;100.00
54042;BME280;41156;51.508;5.406;2023-05-23T04:10:44;101870.13;;;14.89;100.00
54042;BME280;41156;51.508;5.406;2023-05-23T04:13:44;101876.44;;;14.89;100.00
54042;BME280;41156;51.508;5.406;2023-05-23T04:16:46;101873.50;;;14.91;100.00
54042;BME280;41156;51.508;5.406;2023-05-23T04:19:47;101874.09;;;14.93;100.00
54042;BME280;41156;51.508;5.406;2023-05-23T04:22:47;101876.22;;;14.91;100.00
54042;BME280;41156;51.508;5.406;2023-05-23T04:25:47;101888.78;;;14.85;100.00
54042;BME280;41156;51.508;5.406;2023-05-23T04:28:49;101880.22;;;14.82;100.00
54042;BME280;41156;51.508;5.406;2023-05-23T04:31:53;101886.06;;;14.85;100.00
54042;BME280;41156;51.508;5.406;2023-05-23T04:34:53;101879.59;;;14.86;100.00
54042;BME280;41156;51.508;5.406;2023-05-23T04:37:55;101893.63;;;14.83;100.00
54042;BME280;41156;51.508;5.406;2023-05-23T04:40:56;101894.06;;;14.80;100.00
54042;BME280;41156;51.508;5.406;2023-05-23T04:43:56;101901.19;;;14.81;100.00
54042;BME280;41156;51.508;5.406;2023-05-23T04:46:57;101895.53;;;14.83;100.00
54042;BME280;41156;51.508;5.406;2023-05-23T04:49:57;101905.53;;;14.82;100.00
54042;BME280;41156;51.508;5.406;2023-05-23T04:52:59;101898.47;;;14.81;100.00
54042;BME280;41156;51.508;5.406;2023-05-23T04:55:59;101906.66;;;14.74;100.00
54042;BME280;41156;51.508;5.406;2023-05-23T04:59:00;101910.84;;;14.70;100.00
54042;BME280;41156;51.508;5.406;2023-05-23T05:02:00;101908.38;;;14.62;100.00
54042;BME280;41156;51.508;5.406;2023-05-23T05:05:01;101917.38;;;14.63;100.00
54042;BME280;41156;51.508;5.406;2023-05-23T05:08:01;101916.31;;;14.64;100.00
54042;BME280;41156;51.508;5.406;2023-05-23T05:11:01;101918.00;;;14.65;100.00
54042;BME280;41156;51.508;5.406;2023-05-23T05:14:02;101925.31;;;14.71;100.00
54042;BME280;41156;51.508;5.406;2023-05-23T05:17:02;101931.13;;;14.74;100.00
54042;BME280;41156;51.508;5.406;2023-05-23T05:20:03;101929.66;;;14.72;100.00
54042;BME280;41156;51.508;5.406;2023-05-23T05:23:07;101935.97;;;14.72;100.00
54042;BME280;41156;51.508;5.406;2023-05-23T05:26:09;101927.59;;;14.74;100.00
54042;BME280;41156;51.508;5.406;2023-05-23T05:29:09;101942.84;;;14.75;100.00
54042;BME280;41156;51.508;5.406;2023-05-23T05:32:10;101939.31;;;14.74;100.00
54042;BME280;41156;51.508;5.406;2023-05-23T05:35:10;101943.50;;;14.64;100.00
54042;BME280;41156;51.508;5.406;2023-05-23T05:38:13;101949.81;;;14.57;100.00
54042;BME280;41156;51.508;5.406;2023-05-23T05:41:13;101947.09;;;14.51;100.00
54042;BME280;41156;51.508;5.406;2023-05-23T05:44:13;101960.31;;;14.47;100.00
54042;BME280;41156;51.508;5.406;2023-05-23T05:47:14;101957.78;;;14.46;100.00
54042;BME280;41156;51.508;5.406;2023-05-23T05:50:14;101961.97;;;14.41;100.00
54042;BME280;41156;51.508;5.406;2023-05-23T05:53:15;101965.31;;;14.37;100.00
54042;BME280;41156;51.508;5.406;2023-05-23T05:56:16;101969.31;;;14.34;100.00
54042;BME280;41156;51.508;5.406;2023-05-23T05:59:16;101969.09;;;14.36;100.00
54042;BME280;41156;51.508;5.406;2023-05-23T06:02:16;101973.28;;;14.38;100.00
54042;BME280;41156;51.508;5.406;2023-05-23T06:05:16;101978.72;;;14.38;100.00
54042;BME280;41156;51.508;5.406;2023-05-23T06:08:17;101980.63;;;14.31;100.00
54042;BME280;41156;51.508;5.406;2023-05-23T06:11:17;101986.88;;;14.32;100.00
54042;BME280;41156;51.508;5.406;2023-05-23T06:14:17;101986.47;;;14.28;100.00
54042;BME280;41156;51.508;5.406;2023-05-23T06:17:18;101993.41;;;14.24;100.00
54042;BME280;41156;51.508;5.406;2023-05-23T06:20:18;101993.41;;;14.17;100.00
54042;BME280;41156;51.508;5.406;2023-05-23T06:23:18;101998.63;;;14.19;100.00
54042;BME280;41156;51.508;5.406;2023-05-23T06:26:19;102003.63;;;14.15;100.00
54042;BME280;41156;51.508;5.406;2023-05-23T06:29:19;102003.41;;;14.10;100.00
54042;BME280;41156;51.508;5.406;2023-05-23T06:32:19;102005.94;;;14.12;100.00
54042;BME280;41156;51.508;5.406;2023-05-23T06:35:20;102006.34;;;14.09;100.00
54042;BME280;41156;51.508;5.406;2023-05-23T06:38:20;102009.28;;;14.14;100.00
54042;BME280;41156;51.508;5.406;2023-05-23T06:41:20;102004.69;;;14.14;100.00
54042;BME280;41156;51.508;5.406;2023-05-23T06:44:21;102013.88;;;14.06;100.00
54042;BME280;41156;51.508;5.406;2023-05-23T06:47:22;102023.09;;;14.05;100.00
54042;BME280;41156;51.508;5.406;2023-05-23T06:50:22;102031.00;;;14.07;100.00
54042;BME280;41156;51.508;5.406;2023-05-23T06:53:22;102026.66;;;14.06;100.00
54042;BME280;41156;51.508;5.406;2023-05-23T06:56:23;102040.03;;;14.07;100.00
54042;BME280;41156;51.508;5.406;2023-05-23T06:59:23;102043.56;;;14.08;100.00
54042;BME280;41156;51.508;5.406;2023-05-23T07:02:23;102044.84;;;14.05;100.00
54042;BME280;41156;51.508;5.406;2023-05-23T07:05:23;102048.19;;;14.07;100.00
54042;BME280;41156;51.508;5.406;2023-05-23T07:08:24;102059.69;;;14.16;100.00
54042;BME280;41156;51.508;5.406;2023-05-23T07:11:24;102058.44;;;14.12;100.00
54042;BME280;41156;51.508;5.406;2023-05-23T07:14:25;102057.38;;;14.13;100.00
54042;BME280;41156;51.508;5.406;2023-05-23T07:17:25;102055.72;;;14.19;100.00
54042;BME280;41156;51.508;5.406;2023-05-23T07:20:29;102061.97;;;14.26;99.11
54042;BME280;41156;51.508;5.406;2023-05-23T07:23:32;102058.63;;;14.37;98.75
54042;BME280;41156;51.508;5.406;2023-05-23T07:26:35;102060.06;;;14.47;98.41
54042;BME280;41156;51.508;5.406;2023-05-23T07:29:36;102061.97;;;14.59;96.96
54042;BME280;41156;51.508;5.406;2023-05-23T07:32:36;102068.22;;;14.67;91.42
54042;BME280;41156;51.508;5.406;2023-05-23T07:35:36;102068.63;;;14.77;94.43
54042;BME280;41156;51.508;5.406;2023-05-23T07:38:37;102065.84;;;14.97;93.68
54042;BME280;41156;51.508;5.406;2023-05-23T07:41:37;102067.16;;;15.33;91.71
54042;BME280;41156;51.508;5.406;2023-05-23T07:44:37;102085.63;;;15.31;84.98
54042;BME280;41156;51.508;5.406;2023-05-23T07:47:38;102082.94;;;15.24;89.15
54042;BME280;41156;51.508;5.406;2023-05-23T07:50:41;102083.72;;;15.31;83.54
54042;BME280;41156;51.508;5.406;2023-05-23T07:53:41;102078.47;;;15.36;87.77
54042;BME280;41156;51.508;5.406;2023-05-23T07:56:42;102086.00;;;15.41;87.12
54042;BME280;41156;51.508;5.406;2023-05-23T07:59:42;102086.00;;;15.41;87.15
54042;BME280;41156;51.508;5.406;2023-05-23T08:02:42;102093.97;;;15.36;86.14
54042;BME280;41156;51.508;5.406;2023-05-23T08:05:43;102093.13;;;15.42;84.73
54042;BME280;41156;51.508;5.406;2023-05-23T08:08:43;102091.00;;;15.44;81.48
54042;BME280;41156;51.508;5.406;2023-05-23T08:11:43;102106.94;;;15.47;84.65
54042;BME280;41156;51.508;5.406;2023-05-23T08:14:44;102098.56;;;15.42;84.62
54042;BME280;41156;51.508;5.406;2023-05-23T08:17:44;102102.09;;;15.49;85.04
54042;BME280;41156;51.508;5.406;2023-05-23T08:20:44;102108.72;;;15.60;83.85
54042;BME280;41156;51.508;5.406;2023-05-23T08:23:45;102103.88;;;15.69;83.36
54042;BME280;41156;51.508;5.406;2023-05-23T08:26:45;102096.69;;;15.81;83.50
54042;BME280;41156;51.508;5.406;2023-05-23T08:29:45;102098.16;;;15.84;83.03
54042;BME280;41156;51.508;5.406;2023-05-23T08:32:47;102108.44;;;15.75;83.11
54042;BME280;41156;51.508;5.406;2023-05-23T08:35:47;102105.53;;;15.70;83.46
54042;BME280;41156;51.508;5.406;2023-05-23T08:38:49;102105.75;;;15.68;82.34
54042;BME280;41156;51.508;5.406;2023-05-23T08:41:49;102115.66;;;15.63;82.80
54042;BME280;41156;51.508;5.406;2023-05-23T08:44:50;102105.19;;;15.60;83.14
54042;BME280;41156;51.508;5.406;2023-05-23T08:47:51;102116.91;;;15.60;82.95
54042;BME280;41156;51.508;5.406;2023-05-23T08:50:53;102116.88;;;15.67;83.49
54042;BME280;41156;51.508;5.406;2023-05-23T08:53:53;102118.72;;;15.80;82.33
54042;BME280;41156;51.508;5.406;2023-05-23T08:56:57;102126.03;;;15.86;81.91
54042;BME280;41156;51.508;5.406;2023-05-23T08:59:59;102128.53;;;15.87;82.17
54042;BME280;41156;51.508;5.406;2023-05-23T09:03:00;102123.88;;;15.95;82.47
54042;BME280;41156;51.508;5.406;2023-05-23T09:06:01;102123.38;;;16.04;82.26
54042;BME280;41156;51.508;5.406;2023-05-23T09:09:01;102125.63;;;16.14;82.22
54042;BME280;41156;51.508;5.406;2023-05-23T09:12:03;102131.97;;;16.33;81.43
54042;BME280;41156;51.508;5.406;2023-05-23T09:15:07;102134.53;;;16.53;81.95
54042;BME280;41156;51.508;5.406;2023-05-23T09:18:08;102137.81;;;16.62;81.04
54042;BME280;41156;51.508;5.406;2023-05-23T09:21:09;102134.69;;;16.58;80.86
54042;BME280;41156;51.508;5.406;2023-05-23T09:24:11;102136.22;;;16.54;81.19
54042;BME280;41156;51.508;5.406;2023-05-23T09:27:11;102154.81;;;16.39;80.96
54042;BME280;41156;51.508;5.406;2023-05-23T09:30:12;102152.09;;;16.39;80.76
54042;BME280;41156;51.508;5.406;2023-05-23T09:33:13;102147.97;;;16.55;80.58
54042;BME280;41156;51.508;5.406;2023-05-23T09:36:14;102154.38;;;16.67;77.26
54042;BME280;41156;51.508;5.406;2023-05-23T09:39:14;102151.03;;;16.65;78.66
54042;BME280;41156;51.508;5.406;2023-05-23T09:42:20;102154.25;;;16.55;75.25
54042;BME280;41156;51.508;5.406;2023-05-23T09:45:28;102152.88;;;16.46;73.90
54042;BME280;41156;51.508;5.406;2023-05-23T09:48:29;102164.66;;;16.40;76.54
54042;BME280;41156;51.508;5.406;2023-05-23T09:51:32;102149.03;;;16.54;76.95
54042;BME280;41156;51.508;5.406;2023-05-23T09:54:33;102146.50;;;16.77;75.76
54042;BME280;41156;51.508;5.406;2023-05-23T09:57:34;102149.69;;;16.99;74.57
54042;BME280;41156;51.508;5.406;2023-05-23T10:00:36;102158.97;;;17.17;73.97
54042;BME280;41156;51.508;5.406;2023-05-23T10:03:48;102153.09;;;17.13;68.52
54042;BME280;41156;51.508;5.406;2023-05-23T10:06:52;102158.19;;;17.10;72.06
54042;BME280;41156;51.508;5.406;2023-05-23T10:09:55;102158.31;;;17.33;71.71
54042;BME280;41156;51.508;5.406;2023-05-23T10:13:02;102158.50;;;17.57;65.50
54042;BME280;41156;51.508;5.406;2023-05-23T10:16:33;102154.97;;;18.29;68.83
54042;BME280;41156;51.508;5.406;2023-05-23T10:22:35;102148.53;;;19.30;63.01
54042;BME280;41156;51.508;5.406;2023-05-23T10:25:36;102135.72;;;19.59;61.20
54042;BME280;41156;51.508;5.406;2023-05-23T10:28:37;102145.59;;;19.60;63.59
54042;BME280;41156;51.508;5.406;2023-05-23T10:31:39;102156.91;;;19.23;63.56
54042;BME280;41156;51.508;5.406;2023-05-23T10:35:00;102158.44;;;19.31;62.38
54042;BME280;41156;51.508;5.406;2023-05-23T10:38:12;102149.94;;;19.44;57.85
54042;BME280;41156;51.508;5.406;2023-05-23T10:41:23;102148.75;;;19.40;61.56
54042;BME280;41156;51.508;5.406;2023-05-23T10:44:29;102139.78;;;19.56;60.94
54042;BME280;41156;51.508;5.406;2023-05-23T10:47:30;102149.59;;;19.81;60.48
54042;BME280;41156;51.508;5.406;2023-05-23T10:50:35;102138.06;;;19.67;60.06
54042;BME280;41156;51.508;5.406;2023-05-23T10:53:41;102146.19;;;19.62;54.48
54042;BME280;41156;51.508;5.406;2023-05-23T10:56:41;102148.63;;;19.47;60.12
54042;BME280;41156;51.508;5.406;2023-05-23T10:59:44;102143.69;;;19.20;56.59
54042;BME280;41156;51.508;5.406;2023-05-23T11:02:52;102144.88;;;19.24;56.23
54042;BME280;41156;51.508;5.406;2023-05-23T11:05:54;102145.50;;;19.55;53.36
54042;BME280;41156;51.508;5.406;2023-05-23T11:09:21;102140.66;;;19.74;55.71
54042;BME280;41156;51.508;5.406;2023-05-23T11:12:36;102155.66;;;19.83;52.56
54042;BME280;41156;51.508;5.406;2023-05-23T11:15:40;102152.69;;;20.13;53.49
54042;BME280;41156;51.508;5.406;2023-05-23T11:18:41;102143.34;;;20.31;53.91
54042;BME280;41156;51.508;5.406;2023-05-23T11:21:46;102141.53;;;20.20;54.55
54042;BME280;41156;51.508;5.406;2023-05-23T11:24:52;102145.53;;;20.29;52.78
54042;BME280;41156;51.508;5.406;2023-05-23T11:27:53;102139.03;;;20.52;53.98
54042;BME280;41156;51.508;5.406;2023-05-23T11:30:55;102141.34;;;20.95;53.69
54042;BME280;41156;51.508;5.406;2023-05-23T11:33:56;102137.41;;;21.30;53.18
54042;BME280;41156;51.508;5.406;2023-05-23T11:36:56;102148.72;;;21.11;50.26
54042;BME280;41156;51.508;5.406;2023-05-23T11:39:57;102156.84;;;20.84;52.59
54042;BME280;41156;51.508;5.406;2023-05-23T11:42:58;102157.91;;;20.83;51.32
54042;BME280;41156;51.508;5.406;2023-05-23T11:46:07;102143.03;;;20.79;50.38
54042;BME280;41156;51.508;5.406;2023-05-23T11:49:10;102156.06;;;21.05;50.25
54042;BME280;41156;51.508;5.406;2023-05-23T11:52:12;102158.50;;;21.24;50.60
54042;BME280;41156;51.508;5.406;2023-05-23T11:55:13;102151.75;;;21.54;49.49
54042;BME280;41156;51.508;5.406;2023-05-23T11:58:13;102152.44;;;21.66;48.12
54042;BME280;41156;51.508;5.406;2023-05-23T12:01:13;102163.03;;;21.79;47.28
54042;BME280;41156;51.508;5.406;2023-05-23T12:04:14;102162.56;;;21.88;47.13
54042;BME280;41156;51.508;5.406;2023-05-23T12:07:18;102152.66;;;22.14;47.49
54042;BME280;41156;51.508;5.406;2023-05-23T12:10:18;102158.16;;;22.14;46.17
54042;BME280;41156;51.508;5.406;2023-05-23T12:13:28;102159.13;;;22.30;45.32
54042;BME280;41156;51.508;5.406;2023-05-23T12:16:29;102162.09;;;22.50;46.82
54042;BME280;41156;51.508;5.406;2023-05-23T12:19:29;102164.66;;;22.30;44.03
54042;BME280;41156;51.508;5.406;2023-05-23T12:22:30;102173.22;;;21.79;46.28
54042;BME280;41156;51.508;5.406;2023-05-23T12:25:39;102167.94;;;21.50;42.50
54042;BME280;41156;51.508;5.406;2023-05-23T12:28:42;102176.44;;;21.49;47.45
54042;BME280;41156;51.508;5.406;2023-05-23T12:31:44;102172.09;;;21.53;47.52
54042;BME280;41156;51.508;5.406;2023-05-23T12:34:48;102169.13;;;21.15;46.89
54042;BME280;41156;51.508;5.406;2023-05-23T12:37:48;102176.69;;;21.08;47.23
54042;BME280;41156;51.508;5.406;2023-05-23T12:41:06;102179.66;;;21.46;46.36
54042;BME280;41156;51.508;5.406;2023-05-23T12:44:07;102190.06;;;21.21;47.21
54042;BME280;41156;51.508;5.406;2023-05-23T12:47:07;102190.41;;;21.25;46.75
54042;BME280;41156;51.508;5.406;2023-05-23T12:50:08;102197.34;;;21.50;45.08
54042;BME280;41156;51.508;5.406;2023-05-23T12:53:09;102189.34;;;21.70;46.12
54042;BME280;41156;51.508;5.406;2023-05-23T12:56:09;102196.28;;;22.00;45.28
54042;BME280;41156;51.508;5.406;2023-05-23T12:59:09;102201.25;;;22.03;44.46
54042;BME280;41156;51.508;5.406;2023-05-23T13:02:09;102200.94;;;21.72;41.70
54042;BME280;41156;51.508;5.406;2023-05-23T13:05:10;102193.28;;;21.79;44.05
54042;BME280;41156;51.508;5.406;2023-05-23T13:08:10;102191.53;;;22.23;43.63
54042;BME280;41156;51.508;5.406;2023-05-23T13:11:11;102185.25;;;22.27;44.51
54042;BME280;41156;51.508;5.406;2023-05-23T13:14:11;102188.84;;;22.28;44.38
54042;BME280;41156;51.508;5.406;2023-05-23T13:17:13;102190.94;;;22.15;45.04
54042;BME280;41156;51.508;5.406;2023-05-23T13:20:13;102188.69;;;22.12;45.19
54042;BME280;41156;51.508;5.406;2023-05-23T13:23:13;102188.81;;;21.95;44.48
54042;BME280;41156;51.508;5.406;2023-05-23T13:26:14;102187.41;;;22.20;45.01
54042;BME280;41156;51.508;5.406;2023-05-23T13:29:14;102181.41;;;22.56;40.69
54042;BME280;41156;51.508;5.406;2023-05-23T13:32:14;102180.25;;;22.89;41.95
54042;BME280;41156;51.508;5.406;2023-05-23T13:35:15;102167.47;;;23.10;40.29
54042;BME280;41156;51.508;5.406;2023-05-23T13:38:18;102175.94;;;22.61;40.65
54042;BME280;41156;51.508;5.406;2023-05-23T13:41:19;102173.84;;;22.13;42.55
54042;BME280;41156;51.508;5.406;2023-05-23T13:44:19;102179.34;;;21.86;42.86
54042;BME280;41156;51.508;5.406;2023-05-23T13:47:19;102178.09;;;21.50;43.64
54042;BME280;41156;51.508;5.406;2023-05-23T13:50:20;102182.41;;;21.23;43.96
54042;BME280;41156;51.508;5.406;2023-05-23T13:53:20;102182.75;;;21.27;44.86
54042;BME280;41156;51.508;5.406;2023-05-23T13:56:21;102188.56;;;21.31;44.67
54042;BME280;41156;51.508;5.406;2023-05-23T13:59:25;102175.63;;;21.31;44.40
54042;BME280;41156;51.508;5.406;2023-05-23T14:02:25;102183.09;;;21.14;44.57
54042;BME280;41156;51.508;5.406;2023-05-23T14:05:26;102171.25;;;21.30;44.28
54042;BME280;41156;51.508;5.406;2023-05-23T14:08:26;102179.34;;;21.42;44.60
54042;BME280;41156;51.508;5.406;2023-05-23T14:11:27;102180.56;;;21.29;45.18
54042;BME280;41156;51.508;5.406;2023-05-23T14:14:27;102177.75;;;21.24;44.73
54042;BME280;41156;51.508;5.406;2023-05-23T14:17:27;102168.94;;;21.22;44.20
54042;BME280;41156;51.508;5.406;2023-05-23T14:20:28;102173.19;;;21.52;43.95
54042;BME280;41156;51.508;5.406;2023-05-23T14:23:28;102181.88;;;21.93;43.45
54042;BME280;41156;51.508;5.406;2023-05-23T14:26:29;102192.28;;;22.40;42.58
54042;BME280;41156;51.508;5.406;2023-05-23T14:29:29;102188.81;;;22.50;41.93
54042;BME280;41156;51.508;5.406;2023-05-23T14:32:29;102195.66;;;22.47;41.90
54042;BME280;41156;51.508;5.406;2023-05-23T14:35:32;102180.25;;;22.51;41.89
54042;BME280;41156;51.508;5.406;2023-05-23T14:38:32;102185.22;;;22.54;41.62
54042;BME280;41156;51.508;5.406;2023-05-23T14:41:32;102198.75;;;22.56;39.55
54042;BME280;41156;51.508;5.406;2023-05-23T14:44:33;102194.44;;;22.65;40.31
54042;BME280;41156;51.508;5.406;2023-05-23T14:47:33;102190.03;;;22.69;40.11
54042;BME280;41156;51.508;5.406;2023-05-23T14:50:34;102192.91;;;22.47;40.44
54042;BME280;41156;51.508;5.406;2023-05-23T14:53:35;102184.00;;;22.13;40.59
54042;BME280;41156;51.508;5.406;2023-05-23T14:56:36;102189.97;;;21.77;41.16
54042;BME280;41156;51.508;5.406;2023-05-23T14:59:36;102180.19;;;21.65;41.77
54042;BME280;41156;51.508;5.406;2023-05-23T15:02:37;102186.31;;;21.94;41.94
54042;BME280;41156;51.508;5.406;2023-05-23T15:05:37;102175.41;;;22.31;41.16
54042;BME280;41156;51.508;5.406;2023-05-23T15:08:37;102189.63;;;22.50;41.23
54042;BME280;41156;51.508;5.406;2023-05-23T15:11:38;102170.63;;;22.91;40.71
54042;BME280;41156;51.508;5.406;2023-05-23T15:14:40;102177.69;;;23.20;40.41
54042;BME280;41156;51.508;5.406;2023-05-23T15:17:40;102176.41;;;23.38;39.05
54042;BME280;41156;51.508;5.406;2023-05-23T15:20:41;102175.28;;;23.28;39.15
54042;BME280;41156;51.508;5.406;2023-05-23T15:23:41;102181.53;;;22.76;39.19
54042;BME280;41156;51.508;5.406;2023-05-23T15:26:41;102185.59;;;22.31;40.46
54042;BME280;41156;51.508;5.406;2023-05-23T15:29:41;102187.69;;;21.69;38.36
54042;BME280;41156;51.508;5.406;2023-05-23T15:32:42;102181.84;;;21.43;41.70
54042;BME280;41156;51.508;5.406;2023-05-23T15:35:42;102174.88;;;21.58;41.59
54042;BME280;41156;51.508;5.406;2023-05-23T15:38:42;102177.69;;;21.63;41.25
54042;BME280;41156;51.508;5.406;2023-05-23T15:41:43;102186.09;;;21.73;41.07
54042;BME280;41156;51.508;5.406;2023-05-23T15:44:43;102176.94;;;21.68;40.66
54042;BME280;41156;51.508;5.406;2023-05-23T15:47:45;102182.81;;;21.32;41.65